CYYD

Details ICAO CYYD (YYD)
Name SMITHERS
Region Canada
Timezone America/Vancouver (UTC-8.0)
Plans Departing 7
Arriving 10
Stats Elevation 1,712 ft / 522 m (AMSL)
Location 54.824812° -127.182587°
Runways 1
Magnetic Variation 18.245° E
Sunrise 2017-12-16 16:49:02 UTC / 2017-12-16 08:49:02 Local
Sunset 2017-12-17 00:02:48 UTC / 2017-12-16 16:02:48 Local
Advertisement - Login to hide

Runways

ID Width Length Bearing (true) Bearing (mag) Surface Threshold Offset Overrun Length
15 150 ft / 46 m 4,992 ft / 1,521 m 171.00° 152.75° Asphalt 0 ft / 0 m 0 ft / 0 m
33 150 ft / 46 m 4,992 ft / 1,521 m 351.01° 332.76° Asphalt 0 ft / 0 m 0 ft / 0 m

Map

Weather


0- 5 10 15 20 25 30 35+ Temperature / ° C

Clouds and Precipitation
Forecast for 2017-12-16 18:00 UTC. Updated 2 hours ago

Ground ~20,000 ft ~40,000 ft Winds

METAR

CYYD 161600Z 14007KT 20SM SCT025 OVC055 M04/M04 A2991 RMK SC3SC5 PRESFR SLP157

TAF

TAF CYYD 161341Z 1614/1702 13005KT P6SM BKN060 OVC080 TEMPO 1614/1617 3SM -SN BKN020 OVC060 FM161700 16005KT 3SM -SN BKN020 OVC060 TEMPO 1617/1702 P6SM -SN SCT020 OVC060 RMK FCST BASED ON AUTO OBS. NXT FCST BY 161900Z

Frequencies

Tower 122.30 MHz MANDATORY FREQ RDO
Warning: Do not use this data for real-world aviation or navigation. No guarantee of current accuracy is given.